createdAt,value
2022-08-28T00:00:29.345Z,8.03
2022-08-28T00:02:57.245Z,7.83
2022-08-28T00:05:26.652Z,7.53
2022-08-28T00:07:53.510Z,8.00
2022-08-28T00:10:22.407Z,8.50
2022-08-28T00:12:51.352Z,9.27
2022-08-28T00:15:23.276Z,8.80
2022-08-28T00:17:50.434Z,8.30
2022-08-28T00:20:20.158Z,8.73
2022-08-28T00:22:48.558Z,8.87
2022-08-28T00:25:18.737Z,9.97
2022-08-28T00:27:55.201Z,8.10
2022-08-28T00:30:30.360Z,8.73
2022-08-28T00:33:04.229Z,7.60
2022-08-28T00:35:31.201Z,7.80
2022-08-28T00:37:58.373Z,8.13
2022-08-28T00:40:32.483Z,7.47
2022-08-28T00:43:01.649Z,7.13
2022-08-28T00:45:29.036Z,7.80
2022-08-28T00:47:56.407Z,7.43
2022-08-28T00:50:27.770Z,7.07
2022-08-28T00:52:59.154Z,7.40
2022-08-28T00:55:28.354Z,7.00
2022-08-28T00:57:59.109Z,7.77
2022-08-28T01:00:35.698Z,7.23
2022-08-28T01:03:05.126Z,7.70
2022-08-28T01:05:34.210Z,7.77
2022-08-28T01:08:01.354Z,7.23
2022-08-28T01:10:30.866Z,7.90
2022-08-28T01:12:58.327Z,7.30
2022-08-28T01:15:29.868Z,7.97
2022-08-28T01:18:07.834Z,7.40
2022-08-28T01:20:38.063Z,7.10
2022-08-28T01:23:38.930Z,7.90
2022-08-28T01:26:11.627Z,7.93
2022-08-28T01:28:39.164Z,7.30
2022-08-28T01:31:06.354Z,7.33
2022-08-28T01:33:33.915Z,7.57
2022-08-28T01:36:00.784Z,7.70
2022-08-28T01:38:28.050Z,9.47
2022-08-28T01:40:57.811Z,8.23
2022-08-28T01:43:27.641Z,7.60
2022-08-28T01:46:01.899Z,8.50
2022-08-28T01:48:31.073Z,8.00
2022-08-28T01:50:58.285Z,9.23
2022-08-28T01:53:32.747Z,7.30
2022-08-28T01:56:05.360Z,7.67
2022-08-28T01:58:37.474Z,6.90
2022-08-28T02:01:17.208Z,7.03
2022-08-28T02:03:44.385Z,7.87
2022-08-28T02:06:12.246Z,6.77
2022-08-28T02:08:39.086Z,7.90
2022-08-28T02:11:08.204Z,7.50
2022-08-28T02:13:39.701Z,7.37
2022-08-28T02:16:08.997Z,7.43
2022-08-28T02:18:36.730Z,7.57
2022-08-28T02:21:04.526Z,7.70
2022-08-28T02:23:31.398Z,8.13
2022-08-28T02:25:58.263Z,8.00
2022-08-28T02:28:25.175Z,8.00
2022-08-28T02:30:52.022Z,7.63
2022-08-28T02:33:18.860Z,7.83
2022-08-28T02:35:45.806Z,8.40
2022-08-28T02:38:12.739Z,8.23
2022-08-28T02:40:40.018Z,8.53
2022-08-28T02:43:07.376Z,8.20
2022-08-28T02:45:34.445Z,8.30
2022-08-28T02:48:02.045Z,7.77
2022-08-28T02:50:30.033Z,8.17
2022-08-28T02:52:57.112Z,8.80
2022-08-28T02:55:24.883Z,8.10
2022-08-28T02:57:52.767Z,9.27
2022-08-28T03:00:23.149Z,9.40
2022-08-28T03:02:51.560Z,9.97
2022-08-28T03:05:21.688Z,10.27
2022-08-28T03:07:49.474Z,10.20
2022-08-28T03:10:16.753Z,9.53
2022-08-28T03:12:49.339Z,8.80
2022-08-28T03:15:19.420Z,10.27
2022-08-28T03:17:47.971Z,10.47
2022-08-28T03:20:16.062Z,9.53
2022-08-28T03:23:01.891Z,9.73
2022-08-28T03:25:28.675Z,10.30
2022-08-28T03:27:55.781Z,10.57
2022-08-28T03:30:23.902Z,10.30
2022-08-28T03:32:50.815Z,10.53
2022-08-28T03:35:17.850Z,11.20
2022-08-28T03:37:44.786Z,11.23
2022-08-28T03:40:12.994Z,11.07
2022-08-28T03:42:39.990Z,12.07
2022-08-28T03:45:11.208Z,12.17
2022-08-28T03:47:40.473Z,12.50
2022-08-28T03:50:09.974Z,11.93
2022-08-28T03:52:39.854Z,12.60
2022-08-28T03:55:09.516Z,12.23
2022-08-28T03:57:36.877Z,12.23
2022-08-28T04:00:10.596Z,12.23
2022-08-28T04:02:37.438Z,12.67
2022-08-28T04:05:05.585Z,11.87
2022-08-28T04:07:32.434Z,12.17
2022-08-28T04:09:59.293Z,12.00
2022-08-28T04:12:26.095Z,13.27
2022-08-28T04:14:55.091Z,12.97
2022-08-28T04:17:21.940Z,13.00
2022-08-28T04:19:51.864Z,12.90
2022-08-28T04:22:18.721Z,12.40
2022-08-28T04:24:45.760Z,14.87
2022-08-28T04:27:12.628Z,14.20
2022-08-28T04:29:39.406Z,14.53
2022-08-28T04:32:06.689Z,15.37
2022-08-28T04:34:33.574Z,15.03
2022-08-28T04:37:00.393Z,15.73
2022-08-28T04:39:27.209Z,15.03
2022-08-28T04:41:55.620Z,14.97
2022-08-28T04:44:22.504Z,15.37
2022-08-28T04:46:49.385Z,14.63
2022-08-28T04:49:16.883Z,14.87
2022-08-28T04:51:43.721Z,14.97
2022-08-28T04:54:14.136Z,15.67
2022-08-28T04:56:41.978Z,15.10
2022-08-28T04:59:09.432Z,16.13
2022-08-28T05:01:36.760Z,15.07
2022-08-28T05:04:04.005Z,16.07
2022-08-28T05:06:32.773Z,17.73
2022-08-28T05:09:02.008Z,16.23
2022-08-28T05:11:34.105Z,16.00
2022-08-28T05:14:04.508Z,16.07
2022-08-28T05:16:32.155Z,16.23
2022-08-28T05:19:03.155Z,16.80
2022-08-28T05:21:30.115Z,16.67
2022-08-28T05:23:58.000Z,18.07
2022-08-28T05:26:27.099Z,18.07
2022-08-28T05:28:56.535Z,17.67
2022-08-28T05:31:24.329Z,17.30
2022-08-28T05:33:52.719Z,17.37
2022-08-28T05:36:22.740Z,17.80
2022-08-28T05:38:51.247Z,18.03
2022-08-28T05:41:27.143Z,16.93
2022-08-28T05:43:54.116Z,16.93
2022-08-28T05:46:22.437Z,17.43
2022-08-28T05:48:49.993Z,17.23
2022-08-28T05:51:20.276Z,16.67
2022-08-28T05:53:50.168Z,15.93
2022-08-28T05:56:22.545Z,16.57
2022-08-28T05:58:49.976Z,17.40
2022-08-28T06:01:20.596Z,17.67
2022-08-28T06:03:55.031Z,16.30
2022-08-28T06:06:24.742Z,17.10
2022-08-28T06:08:59.050Z,17.37
2022-08-28T06:11:30.698Z,17.20
2022-08-28T06:14:02.417Z,16.80
2022-08-28T06:16:31.751Z,16.13
2022-08-28T06:18:59.234Z,16.80
2022-08-28T06:21:26.231Z,16.10
2022-08-28T06:23:53.302Z,15.93
2022-08-28T06:26:20.453Z,15.73
2022-08-28T06:28:47.358Z,16.57
2022-08-28T06:31:24.260Z,15.93
2022-08-28T06:33:54.176Z,15.87
2022-08-28T06:36:21.903Z,15.53
2022-08-28T06:38:49.011Z,16.27
2022-08-28T06:41:16.175Z,16.97
2022-08-28T06:43:43.042Z,16.47
2022-08-28T06:46:10.105Z,15.07
2022-08-28T06:48:37.159Z,16.87
2022-08-28T06:51:09.417Z,15.43
2022-08-28T06:53:37.537Z,15.73
2022-08-28T06:56:11.915Z,14.90
2022-08-28T06:58:50.270Z,15.67
2022-08-28T07:01:24.401Z,15.13
2022-08-28T07:03:53.745Z,15.60
2022-08-28T07:06:22.801Z,14.90
2022-08-28T07:08:50.954Z,14.23
2022-08-28T07:11:26.025Z,20.27
2022-08-28T07:13:53.939Z,13.90
2022-08-28T07:16:23.099Z,14.63
2022-08-28T07:18:49.970Z,15.10
2022-08-28T07:21:16.908Z,14.63
2022-08-28T07:23:44.985Z,15.97
2022-08-28T07:26:17.725Z,15.23
2022-08-28T07:28:45.616Z,17.03
2022-08-28T07:31:19.156Z,15.47
2022-08-28T07:33:46.180Z,15.20
2022-08-28T07:36:28.803Z,15.00
2022-08-28T07:38:59.390Z,15.13
2022-08-28T07:41:32.345Z,14.80
2022-08-28T07:44:18.098Z,13.57
2022-08-28T07:46:45.423Z,14.33
2022-08-28T07:49:16.958Z,14.67
2022-08-28T07:51:43.823Z,14.13
2022-08-28T07:54:17.745Z,14.60
2022-08-28T07:56:45.746Z,15.30
2022-08-28T07:59:17.071Z,14.57
2022-08-28T08:01:47.015Z,14.50
2022-08-28T08:04:16.174Z,14.23
2022-08-28T08:06:43.670Z,14.67
2022-08-28T08:09:14.236Z,14.07
2022-08-28T08:11:41.366Z,14.43
2022-08-28T08:14:08.853Z,14.33
2022-08-28T08:16:39.135Z,13.83
2022-08-28T08:19:09.784Z,13.53
2022-08-28T08:21:37.752Z,13.63
2022-08-28T08:24:04.934Z,14.10
2022-08-28T08:26:33.121Z,14.47
2022-08-28T08:29:00.228Z,13.50
2022-08-28T08:31:32.879Z,13.90
2022-08-28T08:34:02.539Z,14.13
2022-08-28T08:36:31.277Z,13.83
2022-08-28T08:39:00.385Z,13.70
2022-08-28T08:41:33.612Z,12.43
2022-08-28T08:44:33.699Z,13.67
2022-08-28T08:47:15.013Z,13.63
2022-08-28T08:49:50.094Z,12.30
2022-08-28T08:52:55.093Z,13.10
2022-08-28T08:55:22.171Z,12.83
2022-08-28T08:57:59.604Z,13.40
2022-08-28T09:00:27.564Z,12.07
2022-08-28T09:03:06.363Z,14.90
2022-08-28T09:05:41.789Z,11.33
2022-08-28T09:08:18.627Z,11.87
2022-08-28T09:10:59.034Z,12.13
2022-08-28T09:13:52.711Z,10.93
2022-08-28T09:16:35.256Z,13.47
2022-08-28T09:19:03.073Z,10.50
2022-08-28T09:21:35.380Z,10.53
2022-08-28T09:24:05.751Z,10.63
2022-08-28T09:26:33.193Z,11.27
2022-08-28T09:29:24.551Z,10.70
2022-08-28T09:31:51.405Z,10.57
2022-08-28T09:34:18.146Z,10.13
2022-08-28T09:36:45.858Z,10.47
2022-08-28T09:39:26.443Z,10.87
2022-08-28T09:42:30.674Z,10.13
2022-08-28T09:45:18.499Z,10.10
2022-08-28T09:47:49.869Z,9.57
2022-08-28T09:50:36.411Z,9.90
2022-08-28T09:53:09.118Z,10.37
2022-08-28T09:55:52.981Z,10.00
2022-08-28T09:58:20.924Z,9.87
2022-08-28T10:00:57.014Z,9.43
2022-08-28T10:03:28.966Z,9.37
2022-08-28T10:06:08.631Z,10.07
2022-08-28T10:08:55.043Z,9.03
2022-08-28T10:11:27.967Z,9.93
2022-08-28T10:14:05.401Z,8.80
2022-08-28T10:17:02.968Z,8.30
2022-08-28T10:20:03.147Z,8.47
2022-08-28T10:22:39.314Z,8.40
2022-08-28T10:25:09.408Z,8.53
2022-08-28T10:28:23.893Z,9.00
2022-08-28T10:31:09.509Z,8.93
2022-08-28T10:33:55.429Z,8.20
2022-08-28T10:36:34.547Z,8.80
2022-08-28T10:39:16.924Z,8.43
2022-08-28T10:41:46.790Z,8.97
2022-08-28T10:44:21.202Z,8.30
2022-08-28T10:46:55.594Z,8.87
2022-08-28T10:49:30.933Z,9.20
2022-08-28T10:52:30.726Z,7.53
2022-08-28T10:55:09.506Z,8.57
2022-08-28T10:57:47.359Z,7.90
2022-08-28T11:00:18.527Z,7.73
2022-08-28T11:02:52.608Z,8.50
2022-08-28T11:05:24.981Z,7.10
2022-08-28T11:08:00.932Z,7.27
2022-08-28T11:10:36.476Z,7.53
2022-08-28T11:13:06.302Z,8.10
2022-08-28T11:15:37.198Z,7.23
2022-08-28T11:18:16.741Z,7.53
2022-08-28T11:21:04.606Z,7.63
2022-08-28T11:24:17.866Z,7.10
2022-08-28T11:27:21.674Z,7.10
2022-08-28T11:30:11.140Z,6.97
2022-08-28T11:32:50.108Z,6.07
2022-08-28T11:35:46.334Z,6.20
2022-08-28T11:38:42.184Z,6.20
2022-08-28T11:41:27.967Z,12.13
2022-08-28T11:44:12.913Z,6.87
2022-08-28T11:46:45.049Z,6.40
2022-08-28T11:49:26.958Z,7.70
2022-08-28T11:52:02.588Z,7.07
2022-08-28T11:54:55.244Z,7.50
2022-08-28T11:57:31.817Z,7.90
2022-08-28T12:00:15.031Z,7.53
2022-08-28T12:02:49.868Z,7.97
2022-08-28T12:05:16.688Z,7.10
2022-08-28T12:07:49.851Z,7.30
2022-08-28T12:10:22.646Z,7.10
2022-08-28T12:12:54.029Z,6.47
2022-08-28T12:15:29.876Z,6.73
2022-08-28T12:18:36.899Z,6.47
2022-08-28T12:21:07.166Z,6.47
2022-08-28T12:24:05.323Z,6.43
2022-08-28T12:26:39.798Z,7.00
2022-08-28T12:29:26.822Z,6.97
2022-08-28T12:32:21.713Z,7.37
2022-08-28T12:34:53.126Z,6.07
2022-08-28T12:37:52.403Z,6.20
2022-08-28T12:40:35.131Z,6.70
2022-08-28T12:43:09.102Z,6.57
2022-08-28T12:45:50.745Z,5.90
2022-08-28T12:48:21.576Z,6.83
2022-08-28T12:50:56.115Z,6.40
2022-08-28T12:53:25.789Z,6.83
2022-08-28T12:55:54.162Z,6.93
2022-08-28T12:58:35.421Z,6.23
2022-08-28T13:01:25.820Z,6.20
2022-08-28T13:04:01.264Z,5.37
2022-08-28T13:06:29.633Z,6.23
2022-08-28T13:09:18.626Z,6.97
2022-08-28T13:11:49.108Z,6.27
2022-08-28T13:14:35.709Z,6.73
2022-08-28T13:17:02.576Z,6.83
2022-08-28T13:19:31.980Z,6.80
2022-08-28T13:22:08.559Z,6.10
2022-08-28T13:24:35.338Z,5.77
2022-08-28T13:27:28.711Z,6.77
2022-08-28T13:29:57.145Z,6.47
2022-08-28T13:32:27.055Z,5.87
2022-08-28T13:35:23.078Z,6.27
2022-08-28T13:37:55.935Z,5.70
2022-08-28T13:43:13.922Z,5.43
2022-08-28T13:45:44.031Z,5.87
2022-08-28T13:48:14.000Z,5.57
2022-08-28T13:50:46.629Z,6.33
2022-08-28T13:53:15.192Z,5.63
2022-08-28T13:55:42.169Z,5.43
2022-08-28T13:58:09.277Z,5.60
2022-08-28T14:00:40.438Z,6.07
2022-08-28T14:03:25.789Z,5.70
2022-08-28T14:05:53.132Z,5.67
2022-08-28T14:08:20.201Z,5.50
2022-08-28T14:10:47.072Z,5.57
2022-08-28T14:13:14.523Z,5.30
2022-08-28T14:15:41.399Z,5.80
2022-08-28T14:18:08.213Z,5.97
2022-08-28T14:20:35.000Z,5.97
2022-08-28T14:23:01.887Z,6.20
2022-08-28T14:25:28.672Z,5.53
2022-08-28T14:27:55.955Z,5.80
2022-08-28T14:30:23.027Z,5.10
2022-08-28T14:32:49.850Z,5.10
2022-08-28T14:35:16.913Z,5.83
2022-08-28T14:37:43.815Z,5.77
2022-08-28T14:40:12.708Z,5.27
2022-08-28T14:42:41.830Z,6.00
2022-08-28T14:45:09.175Z,5.33
2022-08-28T14:47:36.695Z,5.60
2022-08-28T14:50:03.778Z,5.37
2022-08-28T14:52:30.689Z,5.87
2022-08-28T14:54:57.527Z,5.73
2022-08-28T14:57:24.398Z,5.30
2022-08-28T14:59:51.239Z,5.13
2022-08-28T15:02:18.825Z,5.10
2022-08-28T15:04:45.649Z,5.67
2022-08-28T15:07:12.975Z,10.10
2022-08-28T15:09:42.006Z,6.87
2022-08-28T15:12:11.292Z,6.10
2022-08-28T15:14:38.219Z,5.77
2022-08-28T15:17:05.653Z,5.80
2022-08-28T15:19:33.066Z,4.93
2022-08-28T15:22:00.274Z,5.50
2022-08-28T15:24:31.443Z,6.50
2022-08-28T15:26:59.597Z,7.10
2022-08-28T15:29:28.233Z,7.93
2022-08-28T15:31:55.339Z,7.73
2022-08-28T15:34:28.389Z,8.17
2022-08-28T15:36:57.080Z,8.07
2022-08-28T15:39:45.085Z,8.17
2022-08-28T15:42:12.326Z,8.17
2022-08-28T15:44:39.664Z,8.23
2022-08-28T15:47:10.119Z,8.50
2022-08-28T15:49:43.426Z,8.30
2022-08-28T15:52:15.900Z,7.80
2022-08-28T15:54:43.248Z,8.17
2022-08-28T15:57:10.257Z,9.03
2022-08-28T15:59:49.441Z,8.83
2022-08-28T16:02:19.541Z,8.77
2022-08-28T16:04:46.508Z,8.40
2022-08-28T16:07:13.524Z,9.30
2022-08-28T16:09:43.932Z,9.10
2022-08-28T16:12:13.232Z,9.40
2022-08-28T16:14:40.644Z,9.87
2022-08-28T16:17:10.625Z,9.90
2022-08-28T16:19:39.736Z,9.63
2022-08-28T16:22:06.981Z,9.97
2022-08-28T16:24:34.451Z,8.83
2022-08-28T16:27:03.683Z,9.33
2022-08-28T16:29:33.410Z,9.03
2022-08-28T16:32:00.332Z,9.03
2022-08-28T16:34:31.357Z,8.10
2022-08-28T16:36:59.274Z,7.80
2022-08-28T16:39:27.340Z,8.00
2022-08-28T16:41:54.169Z,7.60
2022-08-28T16:44:22.884Z,7.90
2022-08-28T16:46:50.326Z,8.40
2022-08-28T16:49:18.774Z,8.77
2022-08-28T16:51:45.572Z,9.00
2022-08-28T16:54:12.464Z,8.57
2022-08-28T16:56:40.059Z,8.67
2022-08-28T16:59:10.408Z,9.17
2022-08-28T17:01:40.163Z,9.13
2022-08-28T17:04:09.613Z,8.47
2022-08-28T17:06:36.392Z,9.47
2022-08-28T17:09:03.737Z,14.53
2022-08-28T17:11:31.045Z,8.60
2022-08-28T17:13:59.318Z,9.40
2022-08-28T17:16:29.837Z,8.93
2022-08-28T17:18:57.181Z,9.90
2022-08-28T17:21:42.688Z,9.10
2022-08-28T17:24:12.650Z,9.00
2022-08-28T17:26:40.731Z,9.30
2022-08-28T17:29:07.665Z,9.40
2022-08-28T17:31:34.657Z,9.73
2022-08-28T17:34:01.680Z,9.33
2022-08-28T17:36:33.411Z,10.00
2022-08-28T17:39:06.385Z,9.63
2022-08-28T17:41:34.025Z,9.30
2022-08-28T17:44:01.583Z,9.20
2022-08-28T17:46:28.633Z,9.50
2022-08-28T17:48:56.419Z,8.90
2022-08-28T17:51:42.622Z,8.43
2022-08-28T17:54:16.776Z,9.37
2022-08-28T17:56:43.739Z,10.10
2022-08-28T17:59:12.078Z,9.53
2022-08-28T18:01:39.972Z,9.90
2022-08-28T18:04:06.993Z,10.00
2022-08-28T18:06:33.977Z,9.70
2022-08-28T18:09:00.896Z,10.83
2022-08-28T18:11:28.796Z,10.67
2022-08-28T18:13:55.685Z,10.33
2022-08-28T18:16:25.427Z,10.13
2022-08-28T18:18:54.728Z,10.20
2022-08-28T18:21:21.571Z,10.33
2022-08-28T18:23:48.430Z,11.10
2022-08-28T18:26:17.498Z,10.73
2022-08-28T18:28:44.487Z,10.23
2022-08-28T18:31:11.358Z,10.67
2022-08-28T18:33:38.717Z,10.83
2022-08-28T18:36:11.437Z,10.37
2022-08-28T18:38:38.927Z,10.67
2022-08-28T18:41:07.127Z,10.47
2022-08-28T18:43:37.223Z,11.30
2022-08-28T18:46:06.213Z,11.73
2022-08-28T18:48:33.251Z,12.17
2022-08-28T18:51:00.205Z,12.13
2022-08-28T18:53:28.880Z,12.73
2022-08-28T18:55:56.031Z,14.30
2022-08-28T18:58:23.747Z,13.43
2022-08-28T19:00:51.151Z,12.80
2022-08-28T19:03:18.177Z,13.53
2022-08-28T19:05:44.993Z,14.13
2022-08-28T19:08:12.460Z,13.57
2022-08-28T19:10:40.079Z,15.17
2022-08-28T19:13:08.025Z,14.30
2022-08-28T19:15:36.208Z,13.77
2022-08-28T19:18:04.203Z,14.37
2022-08-28T19:20:32.178Z,15.30
2022-08-28T19:22:59.525Z,13.27
2022-08-28T19:25:29.448Z,14.17
2022-08-28T19:28:01.529Z,14.17
2022-08-28T19:30:32.938Z,13.73
2022-08-28T19:33:02.563Z,13.57
2022-08-28T19:35:29.680Z,13.97
2022-08-28T19:37:56.606Z,13.77
2022-08-28T19:40:23.651Z,15.17
2022-08-28T19:42:51.003Z,14.03
2022-08-28T19:45:18.571Z,14.87
2022-08-28T19:47:46.874Z,15.50
2022-08-28T19:50:15.269Z,15.70
2022-08-28T19:52:43.434Z,15.50
2022-08-28T19:55:18.555Z,14.83
2022-08-28T19:57:46.854Z,15.57
2022-08-28T20:00:16.587Z,15.87
2022-08-28T20:02:43.961Z,16.40
2022-08-28T20:05:11.953Z,14.60
2022-08-28T20:07:38.829Z,21.37
2022-08-28T20:10:07.779Z,14.70
2022-08-28T20:12:34.668Z,14.67
2022-08-28T20:15:03.746Z,15.37
2022-08-28T20:17:31.181Z,14.23
2022-08-28T20:20:03.118Z,15.23
2022-08-28T20:22:31.898Z,14.70
2022-08-28T20:24:59.328Z,14.90
2022-08-28T20:27:26.420Z,14.43
2022-08-28T20:29:53.248Z,15.70
2022-08-28T20:32:20.512Z,14.83
2022-08-28T20:34:47.333Z,15.57
2022-08-28T20:37:14.191Z,15.63
2022-08-28T20:39:41.738Z,14.53
2022-08-28T20:42:12.465Z,20.83
2022-08-28T20:44:39.673Z,15.87
2022-08-28T20:47:06.863Z,15.63
2022-08-28T20:49:39.324Z,15.77
2022-08-28T20:52:07.063Z,16.23
2022-08-28T20:54:38.851Z,16.03
2022-08-28T20:57:08.112Z,15.70
2022-08-28T20:59:39.958Z,15.57
2022-08-28T21:02:14.043Z,16.33
2022-08-28T21:04:42.460Z,15.30
2022-08-28T21:07:10.195Z,16.50
2022-08-28T21:10:03.931Z,16.27
2022-08-28T21:12:24.652Z,17.40
2022-08-28T21:14:52.971Z,17.70
2022-08-28T21:17:29.615Z,17.57
2022-08-28T21:20:00.568Z,17.17
2022-08-28T21:22:28.967Z,17.23
2022-08-28T21:24:55.858Z,17.77
2022-08-28T21:27:22.855Z,17.70
2022-08-28T21:29:49.840Z,18.33
2022-08-28T21:32:17.048Z,16.70
2022-08-28T21:34:43.870Z,18.00
2022-08-28T21:37:10.821Z,18.00
2022-08-28T21:39:37.722Z,17.63
2022-08-28T21:42:04.621Z,16.87
2022-08-28T21:44:31.545Z,17.83
2022-08-28T21:46:59.141Z,17.27
2022-08-28T21:49:26.077Z,17.77
2022-08-28T21:51:53.027Z,17.63
2022-08-28T21:54:19.909Z,17.70
2022-08-28T21:56:46.842Z,18.67
2022-08-28T21:59:17.453Z,17.77
2022-08-28T22:01:44.336Z,18.07
2022-08-28T22:04:11.946Z,18.57
2022-08-28T22:06:40.454Z,18.30
2022-08-28T22:09:08.797Z,18.23
2022-08-28T22:11:35.655Z,17.23
2022-08-28T22:14:02.675Z,19.00
2022-08-28T22:16:29.870Z,20.37
2022-08-28T22:18:56.834Z,21.43
2022-08-28T22:21:45.414Z,18.20
2022-08-28T22:24:13.298Z,18.37
2022-08-28T22:26:41.786Z,19.60
2022-08-28T22:29:09.908Z,18.60
2022-08-28T22:31:37.250Z,18.60
2022-08-28T22:34:12.358Z,19.07
2022-08-28T22:36:39.342Z,18.70
2022-08-28T22:39:06.195Z,19.63
2022-08-28T22:41:33.196Z,18.30
2022-08-28T22:44:00.411Z,18.67
2022-08-28T22:46:28.314Z,18.03
2022-08-28T22:48:59.289Z,17.50
2022-08-28T22:51:26.185Z,17.63
2022-08-28T22:53:54.947Z,18.50
2022-08-28T22:56:21.996Z,18.50
2022-08-28T22:58:48.763Z,18.47
2022-08-28T23:01:20.214Z,17.13
2022-08-28T23:03:47.773Z,16.93
2022-08-28T23:06:15.334Z,15.60
2022-08-28T23:08:42.506Z,16.03
2022-08-28T23:11:10.630Z,15.10
2022-08-28T23:13:38.164Z,15.00
2022-08-28T23:16:05.511Z,15.17
2022-08-28T23:18:46.385Z,14.97
2022-08-28T23:21:20.914Z,14.17
2022-08-28T23:23:47.710Z,14.30
2022-08-28T23:26:18.366Z,13.77
2022-08-28T23:28:45.267Z,14.83
2022-08-28T23:31:12.540Z,13.67
2022-08-28T23:33:39.640Z,12.97
2022-08-28T23:36:07.156Z,13.07
2022-08-28T23:38:43.030Z,14.57
2022-08-28T23:41:11.229Z,13.63
2022-08-28T23:43:38.411Z,13.70
2022-08-28T23:46:06.429Z,13.23
2022-08-28T23:48:33.640Z,12.80
2022-08-28T23:51:02.192Z,13.60
2022-08-28T23:53:29.401Z,14.23
2022-08-28T23:55:57.582Z,13.73
2022-08-28T23:58:28.486Z,13.77
